sensor_id;sensor_type;location;lat;lon;timestamp;pressure;altitude;pressure_sealevel;temperature;humidity
13695;BME280;6919;52.344;14.518;2024-01-30T00:00:02;102099.19;;;7.19;100.00
13695;BME280;6919;52.344;14.518;2024-01-30T00:02:31;102102.03;;;7.02;100.00
13695;BME280;6919;52.344;14.518;2024-01-30T00:05:00;102097.13;;;7.10;100.00
13695;BME280;6919;52.344;14.518;2024-01-30T00:07:28;102096.16;;;7.25;100.00
13695;BME280;6919;52.344;14.518;2024-01-30T00:09:56;102103.00;;;7.15;100.00
13695;BME280;6919;52.344;14.518;2024-01-30T00:12:25;102105.56;;;7.30;100.00
13695;BME280;6919;52.344;14.518;2024-01-30T00:14:54;102103.09;;;7.27;100.00
13695;BME280;6919;52.344;14.518;2024-01-30T00:17:24;102105.66;;;7.29;100.00
13695;BME280;6919;52.344;14.518;2024-01-30T00:19:56;102109.09;;;7.31;100.00
13695;BME280;6919;52.344;14.518;2024-01-30T00:22:24;102099.84;;;7.36;100.00
13695;BME280;6919;52.344;14.518;2024-01-30T00:24:53;102104.06;;;7.26;100.00
13695;BME280;6919;52.344;14.518;2024-01-30T00:27:21;102101.66;;;7.36;100.00
13695;BME280;6919;52.344;14.518;2024-01-30T00:29:50;102112.91;;;7.27;100.00
13695;BME280;6919;52.344;14.518;2024-01-30T00:32:18;102110.34;;;7.25;100.00
13695;BME280;6919;52.344;14.518;2024-01-30T00:34:48;102112.25;;;7.23;100.00
13695;BME280;6919;52.344;14.518;2024-01-30T00:37:17;102105.59;;;7.16;100.00
13695;BME280;6919;52.344;14.518;2024-01-30T00:39:46;102102.03;;;7.16;100.00
13695;BME280;6919;52.344;14.518;2024-01-30T00:42:14;102113.69;;;7.15;100.00
13695;BME280;6919;52.344;14.518;2024-01-30T00:44:43;102107.19;;;7.05;100.00
13695;BME280;6919;52.344;14.518;2024-01-30T00:47:11;102111.19;;;7.12;100.00
13695;BME280;6919;52.344;14.518;2024-01-30T00:49:39;102113.69;;;7.15;100.00
13695;BME280;6919;52.344;14.518;2024-01-30T00:52:10;102114.81;;;7.25;100.00
13695;BME280;6919;52.344;14.518;2024-01-30T00:54:39;102116.16;;;7.18;100.00
13695;BME280;6919;52.344;14.518;2024-01-30T00:57:08;102116.34;;;7.01;100.00
13695;BME280;6919;52.344;14.518;2024-01-30T00:59:36;102111.69;;;7.04;100.00
13695;BME280;6919;52.344;14.518;2024-01-30T01:02:04;102108.06;;;7.19;100.00
13695;BME280;6919;52.344;14.518;2024-01-30T01:04:33;102113.22;;;7.08;100.00
13695;BME280;6919;52.344;14.518;2024-01-30T01:07:01;102109.56;;;7.23;100.00
13695;BME280;6919;52.344;14.518;2024-01-30T01:09:31;102108.34;;;7.15;100.00
13695;BME280;6919;52.344;14.518;2024-01-30T01:12:00;102112.72;;;7.02;100.00
13695;BME280;6919;52.344;14.518;2024-01-30T01:14:28;102110.63;;;7.21;100.00
13695;BME280;6919;52.344;14.518;2024-01-30T01:17:07;102115.47;;;7.14;100.00
13695;BME280;6919;52.344;14.518;2024-01-30T01:19:36;102105.28;;;7.21;100.00
13695;BME280;6919;52.344;14.518;2024-01-30T01:22:05;102104.16;;;7.11;100.00
13695;BME280;6919;52.344;14.518;2024-01-30T01:24:36;102099.09;;;7.06;100.00
13695;BME280;6919;52.344;14.518;2024-01-30T01:27:05;102100.44;;;6.99;100.00
13695;BME280;6919;52.344;14.518;2024-01-30T01:29:33;102103.38;;;7.09;100.00
13695;BME280;6919;52.344;14.518;2024-01-30T01:32:02;102096.06;;;7.26;100.00
13695;BME280;6919;52.344;14.518;2024-01-30T01:34:30;102098.63;;;7.14;100.00
13695;BME280;6919;52.344;14.518;2024-01-30T01:36:59;102104.16;;;7.25;100.00
13695;BME280;6919;52.344;14.518;2024-01-30T01:39:27;102105.13;;;6.96;100.00
13695;BME280;6919;52.344;14.518;2024-01-30T01:41:57;102101.75;;;7.20;100.00
13695;BME280;6919;52.344;14.518;2024-01-30T01:44:26;102107.28;;;7.17;100.00
13695;BME280;6919;52.344;14.518;2024-01-30T01:46:56;102114.34;;;7.04;100.00
13695;BME280;6919;52.344;14.518;2024-01-30T01:49:27;102111.28;;;7.10;100.00
13695;BME280;6919;52.344;14.518;2024-01-30T01:51:58;102101.84;;;7.05;100.00
13695;BME280;6919;52.344;14.518;2024-01-30T01:54:28;102099.88;;;6.94;100.00
13695;BME280;6919;52.344;14.518;2024-01-30T01:56:59;102102.91;;;7.02;100.00
13695;BME280;6919;52.344;14.518;2024-01-30T01:59:28;102102.44;;;6.96;100.00
13695;BME280;6919;52.344;14.518;2024-01-30T02:01:57;102101.00;;;6.90;100.00
13695;BME280;6919;52.344;14.518;2024-01-30T02:04:26;102103.09;;;6.85;100.00
13695;BME280;6919;52.344;14.518;2024-01-30T02:06:54;102097.66;;;6.87;100.00
13695;BME280;6919;52.344;14.518;2024-01-30T02:09:23;102100.59;;;6.82;100.00
13695;BME280;6919;52.344;14.518;2024-01-30T02:11:52;102093.84;;;6.77;100.00
13695;BME280;6919;52.344;14.518;2024-01-30T02:14:23;102082.34;;;6.90;100.00
13695;BME280;6919;52.344;14.518;2024-01-30T02:16:56;102086.34;;;6.83;100.00
13695;BME280;6919;52.344;14.518;2024-01-30T02:19:24;102088.13;;;6.69;100.00
13695;BME280;6919;52.344;14.518;2024-01-30T02:21:54;102080.31;;;6.80;100.00
13695;BME280;6919;52.344;14.518;2024-01-30T02:24:23;102080.91;;;6.71;100.00
13695;BME280;6919;52.344;14.518;2024-01-30T02:26:53;102077.19;;;6.87;100.00
13695;BME280;6919;52.344;14.518;2024-01-30T02:29:21;102077.19;;;6.87;100.00
13695;BME280;6919;52.344;14.518;2024-01-30T02:31:50;102075.59;;;6.85;100.00
13695;BME280;6919;52.344;14.518;2024-01-30T02:34:19;102077.56;;;6.95;100.00
13695;BME280;6919;52.344;14.518;2024-01-30T02:36:48;102072.72;;;6.88;100.00
13695;BME280;6919;52.344;14.518;2024-01-30T02:39:18;102071.59;;;6.92;100.00
13695;BME280;6919;52.344;14.518;2024-01-30T02:41:46;102072.41;;;6.78;100.00
13695;BME280;6919;52.344;14.518;2024-01-30T02:44:15;102075.78;;;6.82;100.00
13695;BME280;6919;52.344;14.518;2024-01-30T02:46:43;102077.28;;;6.86;100.00
13695;BME280;6919;52.344;14.518;2024-01-30T02:49:12;102081.66;;;6.87;100.00
13695;BME280;6919;52.344;14.518;2024-01-30T02:51:40;102088.34;;;6.94;100.00
13695;BME280;6919;52.344;14.518;2024-01-30T02:54:08;102082.81;;;7.11;100.00
13695;BME280;6919;52.344;14.518;2024-01-30T02:56:38;102087.47;;;7.07;100.00
13695;BME280;6919;52.344;14.518;2024-01-30T02:59:07;102087.28;;;6.96;100.00
13695;BME280;6919;52.344;14.518;2024-01-30T03:01:43;102080.72;;;6.88;100.00
13695;BME280;6919;52.344;14.518;2024-01-30T03:04:12;102078.03;;;6.88;100.00
13695;BME280;6919;52.344;14.518;2024-01-30T03:06:45;102086.63;;;6.79;100.00
13695;BME280;6919;52.344;14.518;2024-01-30T03:09:17;102082.25;;;6.92;100.00
13695;BME280;6919;52.344;14.518;2024-01-30T03:11:47;102079.59;;;6.92;100.00
13695;BME280;6919;52.344;14.518;2024-01-30T03:14:18;102082.44;;;6.75;100.00
13695;BME280;6919;52.344;14.518;2024-01-30T03:16:46;102070.81;;;6.90;100.00
13695;BME280;6919;52.344;14.518;2024-01-30T03:19:16;102079.00;;;6.73;100.00
13695;BME280;6919;52.344;14.518;2024-01-30T03:21:44;102073.19;;;6.80;100.00
13695;BME280;6919;52.344;14.518;2024-01-30T03:24:15;102071.88;;;6.87;100.00
13695;BME280;6919;52.344;14.518;2024-01-30T03:26:44;102074.44;;;6.75;100.00
13695;BME280;6919;52.344;14.518;2024-01-30T03:29:13;102068.03;;;6.63;100.00
13695;BME280;6919;52.344;14.518;2024-01-30T03:31:42;102065.47;;;6.62;100.00
13695;BME280;6919;52.344;14.518;2024-01-30T03:34:10;102068.59;;;6.68;100.00
13695;BME280;6919;52.344;14.518;2024-01-30T03:36:39;102064.47;;;6.49;100.00
13695;BME280;6919;52.344;14.518;2024-01-30T03:39:08;102070.72;;;6.63;100.00
13695;BME280;6919;52.344;14.518;2024-01-30T03:41:36;102070.78;;;6.62;100.00
13695;BME280;6919;52.344;14.518;2024-01-30T03:44:06;102077.81;;;6.49;100.00
13695;BME280;6919;52.344;14.518;2024-01-30T03:46:36;102077.63;;;6.52;100.00
13695;BME280;6919;52.344;14.518;2024-01-30T03:49:04;102067.06;;;6.50;100.00
13695;BME280;6919;52.344;14.518;2024-01-30T03:51:35;102064.41;;;6.50;100.00
13695;BME280;6919;52.344;14.518;2024-01-30T03:54:03;102064.81;;;6.58;100.00
13695;BME280;6919;52.344;14.518;2024-01-30T03:56:32;102062.72;;;6.63;100.00
13695;BME280;6919;52.344;14.518;2024-01-30T03:59:00;102060.44;;;6.71;100.00
13695;BME280;6919;52.344;14.518;2024-01-30T04:01:29;102058.25;;;6.64;100.00
13695;BME280;6919;52.344;14.518;2024-01-30T04:03:59;102061.56;;;6.53;100.00
13695;BME280;6919;52.344;14.518;2024-01-30T04:06:29;102066.50;;;6.59;100.00
13695;BME280;6919;52.344;14.518;2024-01-30T04:08:58;102055.75;;;6.61;100.00
13695;BME280;6919;52.344;14.518;2024-01-30T04:11:27;102054.81;;;6.62;100.00
13695;BME280;6919;52.344;14.518;2024-01-30T04:13:55;102053.75;;;6.50;100.00
13695;BME280;6919;52.344;14.518;2024-01-30T04:16:23;102052.69;;;6.39;100.00
13695;BME280;6919;52.344;14.518;2024-01-30T04:18:52;102056.25;;;6.24;100.00
13695;BME280;6919;52.344;14.518;2024-01-30T04:21:22;102060.06;;;6.20;100.00
13695;BME280;6919;52.344;14.518;2024-01-30T04:23:51;102054.31;;;6.12;100.00
13695;BME280;6919;52.344;14.518;2024-01-30T04:26:20;102051.41;;;6.16;100.00
13695;BME280;6919;52.344;14.518;2024-01-30T04:28:48;102056.81;;;6.15;100.00
13695;BME280;6919;52.344;14.518;2024-01-30T04:31:16;102056.44;;;6.21;100.00
13695;BME280;6919;52.344;14.518;2024-01-30T04:33:45;102051.75;;;6.10;100.00
13695;BME280;6919;52.344;14.518;2024-01-30T04:36:13;102052.19;;;6.02;100.00
13695;BME280;6919;52.344;14.518;2024-01-30T04:38:43;102059.09;;;6.21;100.00
13695;BME280;6919;52.344;14.518;2024-01-30T04:41:11;102042.94;;;6.24;100.00
13695;BME280;6919;52.344;14.518;2024-01-30T04:43:40;102044.38;;;5.99;100.00
13695;BME280;6919;52.344;14.518;2024-01-30T04:46:10;102047.25;;;6.26;100.00
13695;BME280;6919;52.344;14.518;2024-01-30T04:48:38;102041.09;;;6.10;100.00
13695;BME280;6919;52.344;14.518;2024-01-30T04:51:07;102051.00;;;6.22;100.00
13695;BME280;6919;52.344;14.518;2024-01-30T04:53:35;102040.34;;;6.22;100.00
13695;BME280;6919;52.344;14.518;2024-01-30T04:56:06;102051.44;;;6.30;100.00
13695;BME280;6919;52.344;14.518;2024-01-30T04:58:36;102049.44;;;6.34;100.00
13695;BME280;6919;52.344;14.518;2024-01-30T05:01:04;102054.66;;;6.35;100.00
13695;BME280;6919;52.344;14.518;2024-01-30T05:03:33;102048.19;;;6.39;100.00
13695;BME280;6919;52.344;14.518;2024-01-30T05:06:02;102056.75;;;6.30;100.00
13695;BME280;6919;52.344;14.518;2024-01-30T05:08:31;102053.81;;;6.35;100.00
13695;BME280;6919;52.344;14.518;2024-01-30T05:11:00;102056.28;;;6.38;100.00
13695;BME280;6919;52.344;14.518;2024-01-30T05:13:32;102045.63;;;6.38;100.00
13695;BME280;6919;52.344;14.518;2024-01-30T05:16:02;102060.97;;;6.34;100.00
13695;BME280;6919;52.344;14.518;2024-01-30T05:18:31;102053.06;;;6.33;100.00
13695;BME280;6919;52.344;14.518;2024-01-30T05:21:00;102053.34;;;6.42;100.00
13695;BME280;6919;52.344;14.518;2024-01-30T05:23:28;102054.94;;;6.31;100.00
13695;BME280;6919;52.344;14.518;2024-01-30T05:25:56;102054.84;;;6.32;100.00
13695;BME280;6919;52.344;14.518;2024-01-30T05:28:28;102056.56;;;6.33;100.00
13695;BME280;6919;52.344;14.518;2024-01-30T05:30:58;102060.66;;;6.25;100.00
13695;BME280;6919;52.344;14.518;2024-01-30T05:33:27;102044.75;;;6.23;100.00
13695;BME280;6919;52.344;14.518;2024-01-30T05:35:55;102052.28;;;6.31;100.00
13695;BME280;6919;52.344;14.518;2024-01-30T05:38:23;102048.09;;;6.27;100.00
13695;BME280;6919;52.344;14.518;2024-01-30T05:40:52;102051.34;;;6.32;100.00
13695;BME280;6919;52.344;14.518;2024-01-30T05:43:20;102055.50;;;6.22;100.00
13695;BME280;6919;52.344;14.518;2024-01-30T05:45:49;102053.59;;;6.24;100.00
13695;BME280;6919;52.344;14.518;2024-01-30T05:48:19;102051.22;;;6.19;100.00
13695;BME280;6919;52.344;14.518;2024-01-30T05:50:47;102058.06;;;6.23;100.00
13695;BME280;6919;52.344;14.518;2024-01-30T05:53:16;102059.66;;;6.12;100.00
13695;BME280;6919;52.344;14.518;2024-01-30T05:55:44;102051.75;;;6.10;100.00
13695;BME280;6919;52.344;14.518;2024-01-30T05:58:13;102051.56;;;6.13;100.00
13695;BME280;6919;52.344;14.518;2024-01-30T06:00:41;102063.13;;;5.98;100.00
13695;BME280;6919;52.344;14.518;2024-01-30T06:03:10;102055.59;;;5.90;100.00
13695;BME280;6919;52.344;14.518;2024-01-30T06:05:40;102055.41;;;5.78;100.00
13695;BME280;6919;52.344;14.518;2024-01-30T06:08:08;102060.72;;;5.78;100.00
13695;BME280;6919;52.344;14.518;2024-01-30T06:10:37;102056.00;;;5.83;100.00
13695;BME280;6919;52.344;14.518;2024-01-30T06:13:06;102069.06;;;5.87;100.00
13695;BME280;6919;52.344;14.518;2024-01-30T06:15:34;102067.66;;;5.80;100.00
13695;BME280;6919;52.344;14.518;2024-01-30T06:18:03;102069.59;;;5.78;100.00
13695;BME280;6919;52.344;14.518;2024-01-30T06:20:32;102064.25;;;5.78;100.00
13695;BME280;6919;52.344;14.518;2024-01-30T06:23:02;102073.81;;;5.82;100.00
13695;BME280;6919;52.344;14.518;2024-01-30T06:25:32;102061.47;;;5.80;100.00
13695;BME280;6919;52.344;14.518;2024-01-30T06:28:00;102063.91;;;5.69;100.00
13695;BME280;6919;52.344;14.518;2024-01-30T06:30:28;102062.59;;;5.76;100.00
13695;BME280;6919;52.344;14.518;2024-01-30T06:32:57;102063.31;;;5.79;100.00
13695;BME280;6919;52.344;14.518;2024-01-30T06:35:25;102058.25;;;5.90;100.00
13695;BME280;6919;52.344;14.518;2024-01-30T06:37:55;102065.00;;;5.80;100.00
13695;BME280;6919;52.344;14.518;2024-01-30T06:40:25;102059.63;;;5.82;100.00
13695;BME280;6919;52.344;14.518;2024-01-30T06:42:54;102059.38;;;5.86;100.00
13695;BME280;6919;52.344;14.518;2024-01-30T06:45:26;102050.09;;;5.78;100.00
13695;BME280;6919;52.344;14.518;2024-01-30T06:47:54;102060.81;;;5.76;100.00
13695;BME280;6919;52.344;14.518;2024-01-30T06:50:23;102052.59;;;5.65;100.00
13695;BME280;6919;52.344;14.518;2024-01-30T06:52:51;102047.59;;;5.59;100.00
13695;BME280;6919;52.344;14.518;2024-01-30T06:55:20;102052.25;;;5.56;100.00
13695;BME280;6919;52.344;14.518;2024-01-30T06:57:49;102048.50;;;5.44;100.00
13695;BME280;6919;52.344;14.518;2024-01-30T07:00:19;102054.22;;;5.52;100.00
13695;BME280;6919;52.344;14.518;2024-01-30T07:02:49;102058.72;;;5.52;100.00
13695;BME280;6919;52.344;14.518;2024-01-30T07:05:18;102055.34;;;5.48;100.00
13695;BME280;6919;52.344;14.518;2024-01-30T07:07:46;102059.28;;;5.57;100.00
13695;BME280;6919;52.344;14.518;2024-01-30T07:10:15;102056.63;;;5.57;100.00
13695;BME280;6919;52.344;14.518;2024-01-30T07:12:43;102057.03;;;5.65;100.00
13695;BME280;6919;52.344;14.518;2024-01-30T07:15:13;102058.72;;;5.52;100.00
13695;BME280;6919;52.344;14.518;2024-01-30T07:17:45;102057.91;;;5.65;100.00
13695;BME280;6919;52.344;14.518;2024-01-30T07:20:14;102052.50;;;5.51;100.00
13695;BME280;6919;52.344;14.518;2024-01-30T07:22:44;102051.06;;;5.61;100.00
13695;BME280;6919;52.344;14.518;2024-01-30T07:25:13;102055.91;;;5.69;100.00
13695;BME280;6919;52.344;14.518;2024-01-30T07:27:41;102054.53;;;5.77;100.00
13695;BME280;6919;52.344;14.518;2024-01-30T07:30:10;102050.91;;;5.94;100.00
13695;BME280;6919;52.344;14.518;2024-01-30T07:32:39;102044.59;;;5.96;100.00
13695;BME280;6919;52.344;14.518;2024-01-30T07:35:11;102049.47;;;6.18;100.00
13695;BME280;6919;52.344;14.518;2024-01-30T07:37:39;102042.63;;;6.14;100.00
13695;BME280;6919;52.344;14.518;2024-01-30T07:40:09;102033.63;;;6.31;100.00
13695;BME280;6919;52.344;14.518;2024-01-30T07:42:37;102040.38;;;6.36;100.00
13695;BME280;6919;52.344;14.518;2024-01-30T07:45:06;102047.47;;;6.37;100.00
13695;BME280;6919;52.344;14.518;2024-01-30T07:47:35;102043.56;;;6.43;100.00
13695;BME280;6919;52.344;14.518;2024-01-30T07:50:06;102041.47;;;6.48;100.00
13695;BME280;6919;52.344;14.518;2024-01-30T07:52:35;102041.28;;;6.51;100.00
13695;BME280;6919;52.344;14.518;2024-01-30T07:55:04;102042.63;;;6.58;100.00
13695;BME280;6919;52.344;14.518;2024-01-30T07:57:35;102039.50;;;6.65;100.00
13695;BME280;6919;52.344;14.518;2024-01-30T08:00:04;102044.84;;;6.65;100.00
13695;BME280;6919;52.344;14.518;2024-01-30T08:02:34;102045.50;;;6.83;100.00
13695;BME280;6919;52.344;14.518;2024-01-30T08:05:04;102050.63;;;6.86;100.00
13695;BME280;6919;52.344;14.518;2024-01-30T08:07:33;102041.59;;;6.88;100.00
13695;BME280;6919;52.344;14.518;2024-01-30T08:10:01;102042.03;;;6.95;100.00
13695;BME280;6919;52.344;14.518;2024-01-30T08:12:29;102035.78;;;6.96;100.00
13695;BME280;6919;52.344;14.518;2024-01-30T08:14:58;102038.44;;;7.10;100.00
13695;BME280;6919;52.344;14.518;2024-01-30T08:17:26;102037.84;;;7.19;100.00
13695;BME280;6919;52.344;14.518;2024-01-30T08:19:54;102033.97;;;7.37;100.00
13695;BME280;6919;52.344;14.518;2024-01-30T08:22:24;102030.97;;;7.29;100.00
13695;BME280;6919;52.344;14.518;2024-01-30T08:24:53;102038.50;;;7.22;100.00
13695;BME280;6919;52.344;14.518;2024-01-30T08:27:21;102037.41;;;7.39;100.00
13695;BME280;6919;52.344;14.518;2024-01-30T08:29:50;102030.16;;;7.41;100.00
13695;BME280;6919;52.344;14.518;2024-01-30T08:32:18;102028.91;;;7.46;100.00
13695;BME280;6919;52.344;14.518;2024-01-30T08:34:46;102029.91;;;7.58;100.00
13695;BME280;6919;52.344;14.518;2024-01-30T08:37:15;102030.94;;;7.69;100.00
13695;BME280;6919;52.344;14.518;2024-01-30T08:39:45;102030.63;;;7.74;100.00
13695;BME280;6919;52.344;14.518;2024-01-30T08:42:13;102028.56;;;7.65;100.00
13695;BME280;6919;52.344;14.518;2024-01-30T08:44:42;102023.84;;;7.56;100.00
13695;BME280;6919;52.344;14.518;2024-01-30T08:47:10;102032.97;;;7.66;100.00
13695;BME280;6919;52.344;14.518;2024-01-30T08:49:39;102024.38;;;7.61;100.00
13695;BME280;6919;52.344;14.518;2024-01-30T08:52:07;102021.81;;;7.86;100.00
13695;BME280;6919;52.344;14.518;2024-01-30T08:54:36;102030.44;;;7.77;100.00
13695;BME280;6919;52.344;14.518;2024-01-30T08:57:06;102029.94;;;7.97;100.00
13695;BME280;6919;52.344;14.518;2024-01-30T08:59:34;102029.25;;;8.07;100.00
13695;BME280;6919;52.344;14.518;2024-01-30T09:02:03;102027.09;;;8.12;100.00
13695;BME280;6919;52.344;14.518;2024-01-30T09:04:39;102022.81;;;8.49;100.00
13695;BME280;6919;52.344;14.518;2024-01-30T09:07:09;102015.09;;;8.57;100.00
13695;BME280;6919;52.344;14.518;2024-01-30T09:09:38;102010.50;;;8.46;100.00
13695;BME280;6919;52.344;14.518;2024-01-30T09:12:09;102013.69;;;8.89;100.00
13695;BME280;6919;52.344;14.518;2024-01-30T09:14:40;102016.34;;;9.01;100.00
13695;BME280;6919;52.344;14.518;2024-01-30T09:17:09;102007.56;;;9.12;100.00
13695;BME280;6919;52.344;14.518;2024-01-30T09:19:37;102015.59;;;8.99;100.00
13695;BME280;6919;52.344;14.518;2024-01-30T09:22:06;102012.03;;;9.12;100.00
13695;BME280;6919;52.344;14.518;2024-01-30T09:24:35;102011.16;;;9.24;100.00
13695;BME280;6919;52.344;14.518;2024-01-30T09:27:04;102009.72;;;9.43;100.00
13695;BME280;6919;52.344;14.518;2024-01-30T09:29:34;102015.34;;;9.51;100.00
13695;BME280;6919;52.344;14.518;2024-01-30T09:32:05;102008.28;;;9.50;100.00
13695;BME280;6919;52.344;14.518;2024-01-30T09:34:36;102007.06;;;9.31;100.00
13695;BME280;6919;52.344;14.518;2024-01-30T09:37:06;102005.84;;;9.47;100.00
13695;BME280;6919;52.344;14.518;2024-01-30T09:39:35;102006.75;;;9.59;100.00
13695;BME280;6919;52.344;14.518;2024-01-30T09:42:12;102001.72;;;9.78;99.73
13695;BME280;6919;52.344;14.518;2024-01-30T09:44:50;101989.19;;;9.78;96.99
13695;BME280;6919;52.344;14.518;2024-01-30T09:47:19;102003.25;;;9.93;97.10
13695;BME280;6919;52.344;14.518;2024-01-30T09:49:48;102003.47;;;9.90;97.23
13695;BME280;6919;52.344;14.518;2024-01-30T09:52:18;102003.84;;;9.85;97.67
13695;BME280;6919;52.344;14.518;2024-01-30T09:54:49;102008.72;;;9.91;98.01
13695;BME280;6919;52.344;14.518;2024-01-30T09:57:19;102006.16;;;9.90;97.52
13695;BME280;6919;52.344;14.518;2024-01-30T09:59:49;102006.47;;;10.32;96.82
13695;BME280;6919;52.344;14.518;2024-01-30T10:02:19;102005.56;;;10.21;95.82
13695;BME280;6919;52.344;14.518;2024-01-30T10:04:48;102001.59;;;10.48;94.11
13695;BME280;6919;52.344;14.518;2024-01-30T10:07:18;101998.09;;;10.70;93.83
13695;BME280;6919;52.344;14.518;2024-01-30T10:09:47;102000.53;;;10.73;94.65
13695;BME280;6919;52.344;14.518;2024-01-30T10:12:16;101997.22;;;11.13;92.45
13695;BME280;6919;52.344;14.518;2024-01-30T10:14:45;101998.31;;;11.33;90.77
13695;BME280;6919;52.344;14.518;2024-01-30T10:17:14;101997.59;;;11.09;91.36
13695;BME280;6919;52.344;14.518;2024-01-30T10:19:58;101995.97;;;11.28;91.00
13695;BME280;6919;52.344;14.518;2024-01-30T10:22:30;101992.47;;;11.70;89.80
13695;BME280;6919;52.344;14.518;2024-01-30T10:25:00;101995.00;;;11.83;87.46
13695;BME280;6919;52.344;14.518;2024-01-30T10:27:32;101990.88;;;11.79;86.43
13695;BME280;6919;52.344;14.518;2024-01-30T10:30:01;101987.25;;;11.89;87.40
13695;BME280;6919;52.344;14.518;2024-01-30T10:32:33;101989.69;;;11.93;86.04
13695;BME280;6919;52.344;14.518;2024-01-30T10:35:01;101981.06;;;11.89;85.25
13695;BME280;6919;52.344;14.518;2024-01-30T10:37:31;101982.69;;;11.80;80.85
13695;BME280;6919;52.344;14.518;2024-01-30T10:40:04;101986.06;;;12.14;79.99
13695;BME280;6919;52.344;14.518;2024-01-30T10:42:36;101983.31;;;12.25;76.27
13695;BME280;6919;52.344;14.518;2024-01-30T10:45:08;101980.66;;;12.35;75.15
13695;BME280;6919;52.344;14.518;2024-01-30T10:47:42;101975.03;;;12.17;74.02
13695;BME280;6919;52.344;14.518;2024-01-30T10:50:11;101973.31;;;12.16;72.75
13695;BME280;6919;52.344;14.518;2024-01-30T10:52:42;101971.56;;;12.06;72.73
13695;BME280;6919;52.344;14.518;2024-01-30T10:55:11;101974.25;;;11.85;73.11
13695;BME280;6919;52.344;14.518;2024-01-30T10:57:39;101978.63;;;12.07;73.82
13695;BME280;6919;52.344;14.518;2024-01-30T11:00:11;101975.09;;;12.06;71.82
13695;BME280;6919;52.344;14.518;2024-01-30T11:02:46;101970.25;;;12.00;72.11
13695;BME280;6919;52.344;14.518;2024-01-30T11:05:23;101973.31;;;11.96;72.29
13695;BME280;6919;52.344;14.518;2024-01-30T11:07:58;101973.63;;;11.81;72.92
13695;BME280;6919;52.344;14.518;2024-01-30T11:10:29;101975.44;;;11.92;72.59
13695;BME280;6919;52.344;14.518;2024-01-30T11:12:59;101976.00;;;11.96;73.00
13695;BME280;6919;52.344;14.518;2024-01-30T11:15:28;101976.31;;;11.81;73.79
13695;BME280;6919;52.344;14.518;2024-01-30T11:18:01;101969.06;;;12.14;72.00
13695;BME280;6919;52.344;14.518;2024-01-30T11:20:31;101966.69;;;12.00;72.04
13695;BME280;6919;52.344;14.518;2024-01-30T11:23:00;101964.63;;;12.03;72.37
13695;BME280;6919;52.344;14.518;2024-01-30T11:25:33;101966.19;;;11.85;72.15
13695;BME280;6919;52.344;14.518;2024-01-30T11:28:02;101968.38;;;12.01;72.75
13695;BME280;6919;52.344;14.518;2024-01-30T11:30:32;101965.88;;;11.88;72.69
13695;BME280;6919;52.344;14.518;2024-01-30T11:33:05;101969.13;;;12.03;74.39
13695;BME280;6919;52.344;14.518;2024-01-30T11:35:36;101963.38;;;11.33;79.43
13695;BME280;6919;52.344;14.518;2024-01-30T11:38:08;101961.66;;;11.43;78.10
13695;BME280;6919;52.344;14.518;2024-01-30T11:40:38;101956.81;;;11.26;76.93
13695;BME280;6919;52.344;14.518;2024-01-30T11:43:08;101953.50;;;11.22;77.03
13695;BME280;6919;52.344;14.518;2024-01-30T11:45:38;101955.66;;;11.39;76.67
13695;BME280;6919;52.344;14.518;2024-01-30T11:48:08;101949.63;;;11.58;76.33
13695;BME280;6919;52.344;14.518;2024-01-30T11:50:39;101939.13;;;11.66;76.96
13695;BME280;6919;52.344;14.518;2024-01-30T11:53:09;101932.50;;;11.70;75.93
13695;BME280;6919;52.344;14.518;2024-01-30T11:55:37;101934.63;;;11.66;75.57
13695;BME280;6919;52.344;14.518;2024-01-30T11:58:06;101928.25;;;11.67;75.86
13695;BME280;6919;52.344;14.518;2024-01-30T12:00:34;101921.56;;;11.62;74.80
13695;BME280;6919;52.344;14.518;2024-01-30T12:03:04;101922.16;;;11.65;74.72
13695;BME280;6919;52.344;14.518;2024-01-30T12:05:35;101911.91;;;11.59;74.39
13695;BME280;6919;52.344;14.518;2024-01-30T12:08:15;101921.78;;;11.91;74.36
13695;BME280;6919;52.344;14.518;2024-01-30T12:10:44;101907.03;;;12.06;73.09
13695;BME280;6919;52.344;14.518;2024-01-30T12:13:14;101926.84;;;12.05;72.73
13695;BME280;6919;52.344;14.518;2024-01-30T12:15:42;101914.72;;;12.10;72.05
13695;BME280;6919;52.344;14.518;2024-01-30T12:18:11;101916.19;;;12.24;71.70
13695;BME280;6919;52.344;14.518;2024-01-30T12:20:41;101919.31;;;12.29;70.92
13695;BME280;6919;52.344;14.518;2024-01-30T12:23:12;101918.44;;;12.19;70.96
13695;BME280;6919;52.344;14.518;2024-01-30T12:25:41;101911.63;;;12.45;69.81
13695;BME280;6919;52.344;14.518;2024-01-30T12:28:11;101907.19;;;12.34;69.90
13695;BME280;6919;52.344;14.518;2024-01-30T12:30:40;101906.09;;;12.37;69.39
13695;BME280;6919;52.344;14.518;2024-01-30T12:33:08;101913.38;;;12.25;68.63
13695;BME280;6919;52.344;14.518;2024-01-30T12:35:37;101906.47;;;12.32;69.50
13695;BME280;6919;52.344;14.518;2024-01-30T12:38:20;101912.44;;;12.36;69.31
13695;BME280;6919;52.344;14.518;2024-01-30T12:40:48;101919.19;;;12.51;67.95
13695;BME280;6919;52.344;14.518;2024-01-30T12:43:16;101914.81;;;12.59;67.48
13695;BME280;6919;52.344;14.518;2024-01-30T12:45:57;101908.38;;;12.81;66.63
13695;BME280;6919;52.344;14.518;2024-01-30T12:48:26;101907.09;;;12.75;66.10
13695;BME280;6919;52.344;14.518;2024-01-30T12:50:58;101896.06;;;12.88;65.71
13695;BME280;6919;52.344;14.518;2024-01-30T12:53:28;101894.94;;;12.90;65.14
13695;BME280;6919;52.344;14.518;2024-01-30T12:55:57;101892.97;;;12.83;65.19
13695;BME280;6919;52.344;14.518;2024-01-30T12:58:25;101889.81;;;12.78;65.11
13695;BME280;6919;52.344;14.518;2024-01-30T13:00:55;101887.59;;;12.92;64.35